createdAt,value
2023-01-25T00:01:32.091Z,17.02
2023-01-25T00:04:34.768Z,18.92
2023-01-25T00:07:37.167Z,17.62
2023-01-25T00:10:39.785Z,17.98
2023-01-25T00:13:42.311Z,17.20
2023-01-25T00:16:46.063Z,17.25
2023-01-25T00:19:48.452Z,18.27
2023-01-25T00:22:51.155Z,17.45
2023-01-25T00:25:58.781Z,17.40
2023-01-25T00:29:03.148Z,17.08
2023-01-25T00:32:33.423Z,17.55
2023-01-25T00:35:36.200Z,14.90
2023-01-25T00:38:38.657Z,15.07
2023-01-25T00:41:41.305Z,15.70
2023-01-25T00:44:43.840Z,15.48
2023-01-25T00:47:46.499Z,16.70
2023-01-25T00:50:48.765Z,16.35
2023-01-25T00:53:52.228Z,16.90
2023-01-25T00:56:56.490Z,17.50
2023-01-25T00:59:59.184Z,17.12
2023-01-25T01:03:01.529Z,17.42
2023-01-25T01:06:07.092Z,16.87
2023-01-25T01:09:17.778Z,17.67
2023-01-25T01:12:20.380Z,17.35
2023-01-25T01:15:22.730Z,17.52
2023-01-25T01:18:25.352Z,16.37
2023-01-25T01:21:28.225Z,17.90
2023-01-25T01:24:32.407Z,17.62
2023-01-25T01:27:34.774Z,17.35
2023-01-25T01:30:38.259Z,17.62
2023-01-25T01:33:40.916Z,19.37
2023-01-25T01:36:44.166Z,17.45
2023-01-25T01:39:46.474Z,17.33
2023-01-25T01:43:07.821Z,17.62
2023-01-25T01:46:22.851Z,18.00
2023-01-25T01:49:29.365Z,17.33
2023-01-25T01:52:37.822Z,17.87
2023-01-25T01:55:41.065Z,18.00
2023-01-25T01:58:45.271Z,18.52
2023-01-25T02:01:47.944Z,19.02
2023-01-25T02:04:53.572Z,19.12
2023-01-25T02:07:57.600Z,15.40
2023-01-25T02:11:01.927Z,13.82
2023-01-25T02:17:06.887Z,14.25
2023-01-25T02:20:39.911Z,14.73
2023-01-25T02:23:53.053Z,16.70
2023-01-25T02:26:55.645Z,15.02
2023-01-25T02:29:59.059Z,14.87
2023-01-25T02:33:01.403Z,16.10
2023-01-25T02:36:06.876Z,16.02
2023-01-25T02:39:20.136Z,16.52
2023-01-25T02:42:43.215Z,16.75
2023-01-25T02:45:49.610Z,17.45
2023-01-25T02:48:52.688Z,18.58
2023-01-25T02:51:57.445Z,19.20
2023-01-25T02:55:00.311Z,18.17
2023-01-25T02:58:02.782Z,18.55
2023-01-25T03:01:05.738Z,18.83
2023-01-25T03:04:08.582Z,19.25
2023-01-25T03:07:11.505Z,19.12
2023-01-25T03:10:14.000Z,18.60
2023-01-25T03:13:16.809Z,20.85
2023-01-25T03:16:19.691Z,19.37
2023-01-25T03:19:22.393Z,21.23
2023-01-25T03:22:25.014Z,20.10
2023-01-25T03:25:27.841Z,20.58
2023-01-25T03:28:30.594Z,19.58
2023-01-25T03:31:33.392Z,19.37
2023-01-25T03:34:35.903Z,20.65
2023-01-25T03:37:38.861Z,19.77
2023-01-25T03:40:41.225Z,19.40
2023-01-25T03:43:43.890Z,19.48
2023-01-25T03:46:46.837Z,19.02
2023-01-25T03:49:49.438Z,18.00
2023-01-25T03:53:31.403Z,18.43
2023-01-25T03:56:34.828Z,17.37
2023-01-25T03:59:37.942Z,17.63
2023-01-25T04:02:40.806Z,16.15
2023-01-25T04:05:44.291Z,17.05
2023-01-25T04:08:46.955Z,16.77
2023-01-25T04:11:51.236Z,17.55
2023-01-25T04:17:57.076Z,17.10
2023-01-25T04:21:00.107Z,17.80
2023-01-25T04:24:02.830Z,18.40
2023-01-25T04:27:06.492Z,18.70
2023-01-25T04:30:10.989Z,17.85
2023-01-25T04:33:13.474Z,19.17
2023-01-25T04:36:17.464Z,18.98
2023-01-25T04:39:20.249Z,18.25
2023-01-25T04:42:23.095Z,19.50
2023-01-25T04:45:26.245Z,17.73
2023-01-25T04:48:30.269Z,18.17
2023-01-25T04:51:34.032Z,17.35
2023-01-25T04:54:37.104Z,16.23
2023-01-25T04:57:39.701Z,18.48
2023-01-25T05:00:42.540Z,19.62
2023-01-25T05:03:45.203Z,17.73
2023-01-25T05:06:48.840Z,16.50
2023-01-25T05:09:51.207Z,15.43
2023-01-25T05:12:54.623Z,16.67
2023-01-25T05:15:57.720Z,16.55
2023-01-25T05:19:00.501Z,16.05
2023-01-25T05:22:07.721Z,16.12
2023-01-25T05:25:32.194Z,15.15
2023-01-25T05:28:35.958Z,16.53
2023-01-25T05:31:41.461Z,16.20
2023-01-25T05:34:46.100Z,14.98
2023-01-25T05:37:49.419Z,14.98
2023-01-25T05:40:52.235Z,15.77
2023-01-25T05:43:55.084Z,15.10
2023-01-25T05:46:58.825Z,14.75
2023-01-25T05:50:02.011Z,14.93
2023-01-25T05:53:04.985Z,14.43
2023-01-25T05:56:12.760Z,13.73
2023-01-25T05:59:17.361Z,13.62
2023-01-25T06:02:20.562Z,13.70
2023-01-25T06:05:23.361Z,13.47
2023-01-25T06:08:25.766Z,13.35
2023-01-25T06:11:29.131Z,13.73
2023-01-25T06:14:31.569Z,13.98
2023-01-25T06:17:34.382Z,12.75
2023-01-25T06:20:37.094Z,12.52
2023-01-25T06:23:40.744Z,13.15
2023-01-25T06:26:43.185Z,12.88
2023-01-25T06:29:45.979Z,11.98
2023-01-25T06:32:50.501Z,12.70
2023-01-25T06:35:53.104Z,12.88
2023-01-25T06:38:55.436Z,12.50
2023-01-25T06:41:58.102Z,13.50
2023-01-25T06:45:00.455Z,12.48
2023-01-25T06:48:03.582Z,13.32
2023-01-25T06:51:08.616Z,14.43
2023-01-25T06:54:11.242Z,13.32
2023-01-25T06:57:13.638Z,13.50
2023-01-25T07:00:17.198Z,13.70
2023-01-25T07:03:19.567Z,14.27
2023-01-25T07:06:22.625Z,13.50
2023-01-25T07:09:27.033Z,13.00
2023-01-25T07:12:30.399Z,13.38
2023-01-25T07:15:32.698Z,12.87
2023-01-25T07:18:38.183Z,13.43
2023-01-25T07:21:40.504Z,13.73
2023-01-25T07:24:49.764Z,13.32
2023-01-25T07:27:52.086Z,12.20
2023-01-25T07:30:54.732Z,14.75
2023-01-25T07:33:58.429Z,16.00
2023-01-25T07:40:03.479Z,15.43
2023-01-25T07:43:06.101Z,15.18
2023-01-25T07:46:13.358Z,15.48
2023-01-25T07:49:16.511Z,15.65
2023-01-25T07:52:20.636Z,15.53
2023-01-25T07:58:43.193Z,14.63
2023-01-25T08:01:45.792Z,15.25
2023-01-25T08:04:48.511Z,15.32
2023-01-25T08:07:51.119Z,15.63
2023-01-25T08:10:53.779Z,14.60
2023-01-25T08:13:56.328Z,15.27
2023-01-25T08:16:59.220Z,19.50
2023-01-25T08:20:01.981Z,17.25
2023-01-25T08:23:04.564Z,15.10
2023-01-25T08:26:08.571Z,15.40
2023-01-25T08:29:12.288Z,14.80
2023-01-25T08:32:16.171Z,15.20
2023-01-25T08:35:18.744Z,13.13
2023-01-25T08:38:21.077Z,13.73
2023-01-25T08:41:24.664Z,12.52
2023-01-25T08:44:26.967Z,12.63
2023-01-25T08:47:29.752Z,11.15
2023-01-25T08:50:32.067Z,11.05
2023-01-25T08:53:34.843Z,10.00
2023-01-25T08:56:38.758Z,9.80
2023-01-25T08:59:41.369Z,10.23
2023-01-25T09:02:43.719Z,8.70
2023-01-25T09:05:46.306Z,13.68
2023-01-25T09:08:48.637Z,10.77
2023-01-25T09:11:51.284Z,11.57
2023-01-25T09:14:53.754Z,11.30
2023-01-25T09:17:57.112Z,11.25
2023-01-25T09:21:00.737Z,11.97
2023-01-25T09:27:09.583Z,9.75
2023-01-25T09:30:18.247Z,9.82
2023-01-25T09:33:24.412Z,10.45
2023-01-25T09:36:27.301Z,10.15
2023-01-25T09:39:29.676Z,11.05
2023-01-25T09:43:13.187Z,9.93
2023-01-25T09:46:44.159Z,11.55
2023-01-25T09:49:55.985Z,11.10
2023-01-25T09:53:15.310Z,11.48
2023-01-25T09:56:22.519Z,11.32
2023-01-25T09:59:30.781Z,11.25
2023-01-25T10:02:46.497Z,11.05
2023-01-25T10:05:56.751Z,11.70
2023-01-25T10:09:20.056Z,11.12
2023-01-25T10:12:25.181Z,11.57
2023-01-25T10:15:34.799Z,11.05
2023-01-25T10:18:42.805Z,10.70
2023-01-25T10:21:54.916Z,11.32
2023-01-25T10:25:12.058Z,10.75
2023-01-25T10:28:30.937Z,10.73
2023-01-25T10:31:49.119Z,10.70
2023-01-25T10:34:57.705Z,11.43
2023-01-25T10:38:05.578Z,11.77
2023-01-25T10:41:24.229Z,11.43
2023-01-25T10:44:29.129Z,12.23
2023-01-25T10:47:37.333Z,11.27
2023-01-25T10:50:42.358Z,10.98
2023-01-25T10:53:58.413Z,10.93
2023-01-25T10:57:01.114Z,10.55
2023-01-25T11:00:11.095Z,11.30
2023-01-25T11:03:21.116Z,10.27
2023-01-25T11:06:39.458Z,10.35
2023-01-25T11:09:41.812Z,9.75
2023-01-25T11:12:44.453Z,9.90
2023-01-25T11:15:47.797Z,11.00
2023-01-25T11:18:53.067Z,9.85
2023-01-25T11:21:57.903Z,9.65
2023-01-25T11:25:26.280Z,9.80
2023-01-25T11:28:28.584Z,10.68
2023-01-25T11:31:31.303Z,9.43
2023-01-25T11:34:33.707Z,9.95
2023-01-25T11:38:10.916Z,9.75
2023-01-25T11:41:25.789Z,10.13
2023-01-25T11:44:43.532Z,9.80
2023-01-25T11:48:02.597Z,10.90
2023-01-25T11:51:16.016Z,11.15
2023-01-25T11:54:30.747Z,10.75
2023-01-25T11:57:34.403Z,10.23
2023-01-25T12:01:00.228Z,19.02
2023-01-25T12:04:17.784Z,11.25
2023-01-25T12:07:41.150Z,11.48
2023-01-25T12:11:07.808Z,10.27
2023-01-25T12:14:31.925Z,10.38
2023-01-25T12:17:49.906Z,10.88
2023-01-25T12:21:08.453Z,10.45
2023-01-25T12:24:39.514Z,9.82
2023-01-25T12:27:44.853Z,9.82
2023-01-25T12:30:59.991Z,9.93
2023-01-25T12:34:08.121Z,10.80
2023-01-25T12:37:19.762Z,10.65
2023-01-25T12:40:41.930Z,10.77
2023-01-25T12:43:58.136Z,10.32
2023-01-25T12:47:06.597Z,11.23
2023-01-25T12:50:13.541Z,10.38
2023-01-25T12:53:27.699Z,10.38
2023-01-25T12:56:48.731Z,10.80
2023-01-25T13:00:17.082Z,11.25
2023-01-25T13:03:29.640Z,10.45
2023-01-25T13:06:34.731Z,10.88
2023-01-25T13:09:53.078Z,10.63
2023-01-25T13:13:00.831Z,11.57
2023-01-25T13:16:24.275Z,10.35
2023-01-25T13:19:33.414Z,10.55
2023-01-25T13:22:55.036Z,10.52
2023-01-25T13:26:22.620Z,9.27
2023-01-25T13:29:43.545Z,11.07
2023-01-25T13:33:06.515Z,12.80
2023-01-25T13:36:40.693Z,11.02
2023-01-25T13:39:47.676Z,10.30
2023-01-25T13:43:06.409Z,10.02
2023-01-25T13:46:12.695Z,9.88
2023-01-25T13:49:24.580Z,10.07
2023-01-25T13:52:28.212Z,10.02
2023-01-25T13:55:44.294Z,9.68
2023-01-25T13:58:48.146Z,10.82
2023-01-25T14:01:51.863Z,9.73
2023-01-25T14:04:54.951Z,9.77
2023-01-25T14:07:57.450Z,9.57
2023-01-25T14:11:00.231Z,8.52
2023-01-25T14:14:21.558Z,9.02
2023-01-25T14:17:24.667Z,9.48
2023-01-25T14:20:27.146Z,8.90
2023-01-25T14:23:30.854Z,9.82
2023-01-25T14:26:36.076Z,9.75
2023-01-25T14:32:46.498Z,9.95
2023-01-25T14:35:56.511Z,10.18
2023-01-25T14:39:03.161Z,9.75
2023-01-25T14:42:12.591Z,9.13
2023-01-25T14:45:16.925Z,9.48
2023-01-25T14:48:34.846Z,9.63
2023-01-25T14:51:53.484Z,8.88
2023-01-25T14:55:00.291Z,9.50
2023-01-25T14:58:03.195Z,9.55
2023-01-25T15:01:06.011Z,9.63
2023-01-25T15:04:13.297Z,9.98
2023-01-25T15:07:43.756Z,9.52
2023-01-25T15:10:54.866Z,10.00
2023-01-25T15:14:02.629Z,9.90
2023-01-25T15:17:05.134Z,10.38
2023-01-25T15:20:33.565Z,10.00
2023-01-25T15:23:35.967Z,9.77
2023-01-25T15:26:40.121Z,9.38
2023-01-25T15:29:42.753Z,10.00
2023-01-25T15:32:46.280Z,9.88
2023-01-25T15:35:50.045Z,11.12
2023-01-25T15:41:54.751Z,10.43
2023-01-25T15:44:57.381Z,10.95
2023-01-25T15:47:59.700Z,10.38
2023-01-25T15:51:02.647Z,10.27
2023-01-25T15:54:05.462Z,10.45
2023-01-25T15:57:21.063Z,11.33
2023-01-25T16:00:24.601Z,10.52
2023-01-25T16:07:02.059Z,10.50
2023-01-25T16:10:05.271Z,12.48
2023-01-25T16:13:09.865Z,11.07
2023-01-25T16:16:19.367Z,10.73
2023-01-25T16:19:23.944Z,10.85
2023-01-25T16:22:27.075Z,10.48
2023-01-25T16:25:29.661Z,11.40
2023-01-25T16:28:32.365Z,12.15
2023-01-25T16:31:34.920Z,11.20
2023-01-25T16:34:37.590Z,11.00
2023-01-25T16:37:39.927Z,10.70
2023-01-25T16:40:42.502Z,11.07
2023-01-25T16:43:47.077Z,10.55
2023-01-25T16:46:50.530Z,10.40
2023-01-25T16:49:52.890Z,9.88
2023-01-25T16:52:56.247Z,10.07
2023-01-25T16:56:01.759Z,10.10
2023-01-25T16:59:06.316Z,10.32
2023-01-25T17:02:12.517Z,9.38
2023-01-25T17:05:15.195Z,10.43
2023-01-25T17:08:17.521Z,10.05
2023-01-25T17:11:21.534Z,10.23
2023-01-25T17:14:24.051Z,10.13
2023-01-25T17:17:31.213Z,9.55
2023-01-25T17:20:33.569Z,10.35
2023-01-25T17:23:37.910Z,9.98
2023-01-25T17:29:44.200Z,9.05
2023-01-25T17:32:46.628Z,10.27
2023-01-25T17:35:49.524Z,11.75
2023-01-25T17:38:53.944Z,11.30
2023-01-25T17:41:56.570Z,10.48
2023-01-25T17:44:59.133Z,11.63
2023-01-25T17:48:01.773Z,11.25
2023-01-25T17:51:04.429Z,10.63
2023-01-25T17:54:07.338Z,11.00
2023-01-25T17:57:10.510Z,10.93
2023-01-25T18:00:13.862Z,10.63
2023-01-25T18:03:16.055Z,10.93
2023-01-25T18:06:21.837Z,11.55
2023-01-25T18:09:25.600Z,11.27
2023-01-25T18:15:32.168Z,10.50
2023-01-25T18:18:35.364Z,10.75
2023-01-25T18:21:38.534Z,10.27
2023-01-25T18:24:42.711Z,10.90
2023-01-25T18:27:45.125Z,10.63
2023-01-25T18:30:54.121Z,12.63
2023-01-25T18:33:58.285Z,11.43
2023-01-25T18:37:01.142Z,10.88
2023-01-25T18:40:03.800Z,10.75
2023-01-25T18:43:06.443Z,12.00
2023-01-25T18:46:09.415Z,11.88
2023-01-25T18:49:12.075Z,12.27
2023-01-25T18:52:14.523Z,13.35
2023-01-25T18:55:17.528Z,13.20
2023-01-25T18:58:20.068Z,14.23
2023-01-25T19:01:23.112Z,13.70
2023-01-25T19:04:25.561Z,12.82
2023-01-25T19:07:28.267Z,12.13
2023-01-25T19:10:30.578Z,12.75
2023-01-25T19:13:34.601Z,13.10
2023-01-25T19:16:37.068Z,13.18
2023-01-25T19:19:40.858Z,13.15
2023-01-25T19:22:43.211Z,11.98
2023-01-25T19:25:45.833Z,12.27
2023-01-25T19:28:48.520Z,9.93
2023-01-25T19:31:51.241Z,9.75
2023-01-25T19:34:53.597Z,9.50
2023-01-25T19:37:56.886Z,10.18
2023-01-25T19:41:11.088Z,11.30
2023-01-25T19:44:14.362Z,10.40
2023-01-25T19:47:16.758Z,10.57
2023-01-25T19:50:19.499Z,10.52
2023-01-25T19:53:21.783Z,11.77
2023-01-25T19:56:25.915Z,12.02
2023-01-25T19:59:29.100Z,11.30
2023-01-25T20:02:32.864Z,12.70
2023-01-25T20:05:35.498Z,11.90
2023-01-25T20:08:40.210Z,11.23
2023-01-25T20:11:43.521Z,11.63
2023-01-25T20:14:45.899Z,11.90
2023-01-25T20:17:48.630Z,10.55
2023-01-25T20:21:02.664Z,11.02
2023-01-25T20:27:08.122Z,10.32
2023-01-25T20:30:11.347Z,10.57
2023-01-25T20:33:13.705Z,9.88
2023-01-25T20:36:16.491Z,10.18
2023-01-25T20:39:20.744Z,9.40
2023-01-25T20:42:23.379Z,8.88
2023-01-25T20:45:25.674Z,10.25
2023-01-25T20:48:30.075Z,9.98
2023-01-25T20:51:33.700Z,9.75
2023-01-25T20:54:38.355Z,9.95
2023-01-25T20:57:41.034Z,9.95
2023-01-25T21:00:43.637Z,10.68
2023-01-25T21:03:46.617Z,9.95
2023-01-25T21:06:49.269Z,10.65
2023-01-25T21:09:51.626Z,9.93
2023-01-25T21:12:54.239Z,10.43
2023-01-25T21:16:04.353Z,9.63
2023-01-25T21:19:07.216Z,10.20
2023-01-25T21:22:09.602Z,9.15
2023-01-25T21:25:12.765Z,10.75
2023-01-25T21:28:15.072Z,9.70
2023-01-25T21:34:22.937Z,9.02
2023-01-25T21:37:25.668Z,8.82
2023-01-25T21:40:29.064Z,8.98
2023-01-25T21:43:51.668Z,9.20
2023-01-25T21:47:27.490Z,9.23
2023-01-25T21:50:35.837Z,8.90
2023-01-25T21:53:38.152Z,9.55
2023-01-25T21:56:40.847Z,9.55
2023-01-25T21:59:43.152Z,9.15
2023-01-25T22:02:45.881Z,9.23
2023-01-25T22:05:54.671Z,9.73
2023-01-25T22:08:59.617Z,8.93
2023-01-25T22:12:05.262Z,9.57
2023-01-25T22:15:10.397Z,9.68
2023-01-25T22:18:13.072Z,10.68
2023-01-25T22:21:20.153Z,11.00
2023-01-25T22:24:22.891Z,9.98
2023-01-25T22:27:38.266Z,10.30
2023-01-25T22:30:42.261Z,10.35
2023-01-25T22:33:45.100Z,10.70
2023-01-25T22:36:49.918Z,10.70
2023-01-25T22:39:54.286Z,10.40
2023-01-25T22:42:57.506Z,10.15
2023-01-25T22:45:59.872Z,10.18
2023-01-25T22:49:02.832Z,10.50
2023-01-25T22:52:05.305Z,10.68
2023-01-25T22:55:08.367Z,10.52
2023-01-25T22:58:11.182Z,10.48
2023-01-25T23:01:16.853Z,10.87
2023-01-25T23:04:19.206Z,9.80
2023-01-25T23:07:21.933Z,10.30
2023-01-25T23:10:24.709Z,11.12
2023-01-25T23:13:27.699Z,11.23
2023-01-25T23:16:30.904Z,10.65
2023-01-25T23:19:33.537Z,11.57
2023-01-25T23:22:35.888Z,11.40
2023-01-25T23:25:40.969Z,11.07
2023-01-25T23:28:43.956Z,13.62
2023-01-25T23:31:49.146Z,13.05
2023-01-25T23:34:54.466Z,12.45
2023-01-25T23:37:57.552Z,13.10
2023-01-25T23:41:01.223Z,13.73
2023-01-25T23:44:03.890Z,13.90
2023-01-25T23:47:06.278Z,14.98
2023-01-25T23:50:10.141Z,13.77
2023-01-25T23:53:13.841Z,14.35
2023-01-25T23:56:22.154Z,12.80
2023-01-25T23:59:24.622Z,13.82
